Time;durP1;ratioP1;P1;durP2;ratioP2;P2;SDS_P1;SDS_P2;PMS_P1;PMS_P2;Temp;Humidity;BMP_temperature;BMP_pressure;BME280_temperature;BME280_humidity;BME280_pressure;Samples;Min_cycle;Max_cycle;Signal;HPM_P1;HPM_P2
2023/12/24 00:00:41;;;;;;;0.05;0.05;;;;;;;;;;5069889;28;20116;-76
2023/12/24 00:03:08;;;;;;;0.00;0.00;;;;;;;;;;5068744;28;20047;-76
2023/12/24 00:05:34;;;;;;;0.50;0.20;;;;;;;;;;5084299;28;20024;-76
2023/12/24 00:08:00;;;;;;;0.17;0.17;;;;;;;;;;5067811;28;20028;-76
2023/12/24 00:10:26;;;;;;;0.10;0.00;;;;;;;;;;5060089;28;20025;-76
2023/12/24 00:12:52;;;;;;;0.20;0.15;;;;;;;;;;5054624;28;20434;-77
2023/12/24 00:15:18;;;;;;;4.35;0.20;;;;;;;;;;5055717;28;20484;-76
2023/12/24 00:17:44;;;;;;;0.52;0.10;;;;;;;;;;5054975;28;20062;-77
2023/12/24 00:20:10;;;;;;;0.00;0.00;;;;;;;;;;5054708;28;20024;-77
2023/12/24 00:22:37;;;;;;;0.10;0.10;;;;;;;;;;5055584;28;20032;-77
2023/12/24 00:25:03;;;;;;;0.45;0.13;;;;;;;;;;5054610;28;20029;-75
2023/12/24 00:27:29;;;;;;;0.45;0.10;;;;;;;;;;5055402;28;20387;-76
2023/12/24 00:29:55;;;;;;;0.30;0.30;;;;;;;;;;5056880;28;20021;-77
2023/12/24 00:32:24;;;;;;;2.35;0.13;;;;;;;;;;5058226;28;20422;-77
2023/12/24 00:34:51;;;;;;;0.10;0.10;;;;;;;;;;5062058;28;20013;-77
2023/12/24 00:37:17;;;;;;;0.15;0.15;;;;;;;;;;5074752;28;20119;-76
2023/12/24 00:39:43;;;;;;;0.38;0.10;;;;;;;;;;5067710;28;20555;-75
2023/12/24 00:42:09;;;;;;;0.68;0.10;;;;;;;;;;5064289;28;20031;-77
2023/12/24 00:44:35;;;;;;;0.52;0.10;;;;;;;;;;5063457;28;20359;-77
2023/12/24 00:47:01;;;;;;;0.10;0.10;;;;;;;;;;5064952;28;20082;-76
2023/12/24 00:49:29;;;;;;;0.10;0.10;;;;;;;;;;5063413;28;20033;-76
2023/12/24 00:51:56;;;;;;;0.10;0.00;;;;;;;;;;5064643;28;20013;-77
2023/12/24 00:54:22;;;;;;;0.10;0.10;;;;;;;;;;5063857;28;20042;-76
2023/12/24 00:56:48;;;;;;;0.20;0.20;;;;;;;;;;5049807;28;20025;-76
2023/12/24 00:59:15;;;;;;;0.20;0.10;;;;;;;;;;5059950;28;20107;-75
2023/12/24 01:01:41;;;;;;;1.45;0.10;;;;;;;;;;5052208;28;20048;-75
2023/12/24 01:04:07;;;;;;;0.38;0.17;;;;;;;;;;5054107;28;20082;-76
2023/12/24 01:06:33;;;;;;;0.05;0.03;;;;;;;;;;5051816;28;20044;-76
2023/12/24 01:08:59;;;;;;;0.08;0.08;;;;;;;;;;5055773;28;20033;-77
2023/12/24 01:11:25;;;;;;;0.10;0.10;;;;;;;;;;5063917;28;20029;-74
2023/12/24 01:13:51;;;;;;;0.10;0.00;;;;;;;;;;5070341;28;20024;-76
2023/12/24 01:16:17;;;;;;;0.50;0.50;;;;;;;;;;5059106;28;20029;-77
2023/12/24 01:18:44;;;;;;;0.13;0.13;;;;;;;;;;5065542;28;20029;-77
2023/12/24 01:21:10;;;;;;;0.00;0.00;;;;;;;;;;5053289;28;20035;-76
2023/12/24 01:23:36;;;;;;;0.00;0.00;;;;;;;;;;5053413;28;20017;-76
2023/12/24 01:26:02;;;;;;;0.10;0.10;;;;;;;;;;5052898;28;20032;-74
2023/12/24 01:28:29;;;;;;;0.13;0.00;;;;;;;;;;5052010;28;20108;-76
2023/12/24 01:30:55;;;;;;;0.22;0.10;;;;;;;;;;5053716;28;20017;-76
2023/12/24 01:33:21;;;;;;;0.00;0.00;;;;;;;;;;5050713;28;20017;-77
2023/12/24 01:35:47;;;;;;;0.00;0.00;;;;;;;;;;5053329;28;20549;-76
2023/12/24 01:38:14;;;;;;;0.65;0.10;;;;;;;;;;5052402;28;20021;-77
2023/12/24 01:40:45;;;;;;;0.25;0.20;;;;;;;;;;5052086;28;20410;-77
2023/12/24 01:43:11;;;;;;;0.10;0.10;;;;;;;;;;5053248;28;20055;-77
2023/12/24 01:45:38;;;;;;;0.35;0.30;;;;;;;;;;5053169;28;20103;-77
2023/12/24 01:48:04;;;;;;;2.55;0.32;;;;;;;;;;5064667;28;20029;-77
2023/12/24 01:50:32;;;;;;;0.00;0.00;;;;;;;;;;5055228;28;20024;-76
2023/12/24 01:52:58;;;;;;;1.38;0.03;;;;;;;;;;5059083;28;20052;-77
2023/12/24 01:55:25;;;;;;;1.48;0.10;;;;;;;;;;5053787;28;20025;-77
2023/12/24 01:57:51;;;;;;;0.00;0.00;;;;;;;;;;5045185;28;20021;-77
2023/12/24 02:00:19;;;;;;;0.25;0.25;;;;;;;;;;5052280;28;20032;-76
2023/12/24 02:02:46;;;;;;;0.00;0.00;;;;;;;;;;5056626;28;20083;-76
2023/12/24 02:05:12;;;;;;;0.00;0.00;;;;;;;;;;5056755;28;20098;-76
2023/12/24 02:07:38;;;;;;;0.82;0.00;;;;;;;;;;5056897;28;20476;-76
2023/12/24 02:10:05;;;;;;;0.10;0.10;;;;;;;;;;5056874;28;20079;-76
2023/12/24 02:12:31;;;;;;;0.10;0.10;;;;;;;;;;5064002;28;20029;-76
2023/12/24 02:14:58;;;;;;;0.10;0.10;;;;;;;;;;5056695;28;20029;-76
2023/12/24 02:17:24;;;;;;;0.20;0.20;;;;;;;;;;5047854;28;20028;-76
2023/12/24 02:19:50;;;;;;;0.20;0.13;;;;;;;;;;5056855;28;20104;-75
2023/12/24 02:22:16;;;;;;;0.10;0.10;;;;;;;;;;5058265;28;20170;-77
2023/12/24 02:24:43;;;;;;;0.10;0.10;;;;;;;;;;5058724;28;20052;-77
2023/12/24 02:27:09;;;;;;;0.10;0.10;;;;;;;;;;5058892;28;20025;-76
2023/12/24 02:29:38;;;;;;;0.10;0.10;;;;;;;;;;5058512;28;20048;-76
2023/12/24 02:32:15;;;;;;;0.22;0.00;;;;;;;;;;5056693;28;20127;-76
2023/12/24 02:34:43;;;;;;;0.28;0.08;;;;;;;;;;5057577;28;20432;-76
2023/12/24 02:37:09;;;;;;;0.15;0.15;;;;;;;;;;5056819;28;20078;-75
2023/12/24 02:39:39;;;;;;;0.00;0.00;;;;;;;;;;5057477;28;20434;-76
2023/12/24 02:42:05;;;;;;;0.10;0.10;;;;;;;;;;5046964;28;20025;-76
2023/12/24 02:44:31;;;;;;;0.10;0.10;;;;;;;;;;5056941;28;20425;-76
2023/12/24 02:46:57;;;;;;;0.10;0.10;;;;;;;;;;5056067;28;20036;-76
2023/12/24 02:49:24;;;;;;;0.00;0.00;;;;;;;;;;5055924;28;20021;-77
2023/12/24 02:51:50;;;;;;;0.63;0.10;;;;;;;;;;5055865;28;20016;-77
2023/12/24 02:54:16;;;;;;;0.20;0.10;;;;;;;;;;5057077;28;20029;-76
2023/12/24 02:56:45;;;;;;;1.20;0.00;;;;;;;;;;5055227;28;20028;-76
2023/12/24 02:59:11;;;;;;;0.17;0.10;;;;;;;;;;5064771;28;20025;-76
2023/12/24 03:01:37;;;;;;;0.32;0.03;;;;;;;;;;5053750;28;20102;-77
2023/12/24 03:04:04;;;;;;;0.17;0.10;;;;;;;;;;5055794;28;20032;-76
2023/12/24 03:06:30;;;;;;;0.10;0.10;;;;;;;;;;5054654;28;20025;-76
2023/12/24 03:08:56;;;;;;;0.25;0.10;;;;;;;;;;5060562;28;20472;-77
2023/12/24 03:11:22;;;;;;;3.60;0.10;;;;;;;;;;5051837;28;20048;-77
2023/12/24 03:13:49;;;;;;;0.95;0.20;;;;;;;;;;5054324;28;20070;-77
2023/12/24 03:16:16;;;;;;;0.20;0.20;;;;;;;;;;5054788;28;20021;-77
2023/12/24 03:18:42;;;;;;;0.05;0.05;;;;;;;;;;5046706;28;20029;-76
2023/12/24 03:21:08;;;;;;;0.28;0.10;;;;;;;;;;5053305;28;20025;-77
2023/12/24 03:23:34;;;;;;;0.20;0.20;;;;;;;;;;5055191;28;20025;-77
2023/12/24 03:26:00;;;;;;;1.55;0.10;;;;;;;;;;5054928;28;20364;-77
2023/12/24 03:28:27;;;;;;;0.88;0.20;;;;;;;;;;5068996;28;20073;-75
2023/12/24 03:30:53;;;;;;;0.55;0.10;;;;;;;;;;5058387;28;20120;-75
2023/12/24 03:33:19;;;;;;;0.10;0.00;;;;;;;;;;5055017;28;20191;-77
2023/12/24 03:35:45;;;;;;;0.22;0.20;;;;;;;;;;5055012;28;20441;-77
2023/12/24 03:38:11;;;;;;;0.43;0.10;;;;;;;;;;5054303;28;20079;-77
2023/12/24 03:40:37;;;;;;;0.38;0.20;;;;;;;;;;5060557;28;20557;-75
2023/12/24 03:43:04;;;;;;;0.60;0.20;;;;;;;;;;5060850;28;20029;-76
2023/12/24 03:45:32;;;;;;;0.10;0.10;;;;;;;;;;5054524;28;20024;-76
2023/12/24 03:47:58;;;;;;;0.10;0.10;;;;;;;;;;5054013;28;20032;-76
2023/12/24 03:50:24;;;;;;;0.17;0.17;;;;;;;;;;5046549;28;20025;-76
2023/12/24 03:52:50;;;;;;;0.38;0.20;;;;;;;;;;5053711;28;20029;-76
2023/12/24 03:55:16;;;;;;;0.30;0.20;;;;;;;;;;5054395;28;20029;-76
2023/12/24 03:57:43;;;;;;;0.20;0.20;;;;;;;;;;5053892;28;20020;-77
2023/12/24 04:00:09;;;;;;;0.25;0.10;;;;;;;;;;5054234;28;20040;-77
2023/12/24 04:02:35;;;;;;;0.10;0.10;;;;;;;;;;5053820;28;20025;-77
2023/12/24 04:05:01;;;;;;;1.00;0.25;;;;;;;;;;5056583;28;20056;-77
2023/12/24 04:07:27;;;;;;;0.22;0.20;;;;;;;;;;5049928;28;20032;-77
2023/12/24 04:09:53;;;;;;;0.10;0.10;;;;;;;;;;5053887;28;20021;-77
2023/12/24 04:12:19;;;;;;;0.00;0.00;;;;;;;;;;5054217;28;20064;-75
2023/12/24 04:14:45;;;;;;;0.75;0.15;;;;;;;;;;5053944;28;20040;-77
2023/12/24 04:17:12;;;;;;;0.15;0.15;;;;;;;;;;5053855;28;20028;-77
2023/12/24 04:19:38;;;;;;;0.10;0.10;;;;;;;;;;5044846;28;20021;-77
2023/12/24 04:22:04;;;;;;;0.10;0.10;;;;;;;;;;5053503;28;20484;-77
2023/12/24 04:24:32;;;;;;;0.55;0.05;;;;;;;;;;5053744;28;20123;-77
2023/12/24 04:26:58;;;;;;;0.10;0.10;;;;;;;;;;5053347;28;20021;-76
2023/12/24 04:29:24;;;;;;;0.82;0.20;;;;;;;;;;5054246;28;20031;-76
2023/12/24 04:31:50;;;;;;;0.43;0.20;;;;;;;;;;5056755;28;20033;-77
2023/12/24 04:34:16;;;;;;;0.10;0.10;;;;;;;;;;5056137;28;20032;-76
2023/12/24 04:36:42;;;;;;;0.68;0.20;;;;;;;;;;5053628;28;20028;-75
2023/12/24 04:39:09;;;;;;;0.20;0.20;;;;;;;;;;5053708;28;20029;-77
2023/12/24 04:41:35;;;;;;;0.10;0.10;;;;;;;;;;5056749;28;20029;-75
2023/12/24 04:44:01;;;;;;;0.17;0.17;;;;;;;;;;5053480;28;20021;-77
2023/12/24 04:46:27;;;;;;;0.15;0.10;;;;;;;;;;5052870;28;20033;-77
2023/12/24 04:48:53;;;;;;;0.00;0.00;;;;;;;;;;5068430;28;20021;-76
2023/12/24 04:51:19;;;;;;;0.10;0.10;;;;;;;;;;5053142;28;20064;-76
2023/12/24 04:53:45;;;;;;;0.08;0.00;;;;;;;;;;5053903;28;20017;-76
2023/12/24 04:56:21;;;;;;;0.10;0.10;;;;;;;;;;5053830;28;20021;-75
2023/12/24 04:58:48;;;;;;;0.10;0.10;;;;;;;;;;5059939;28;20053;-76
2023/12/24 05:01:17;;;;;;;0.20;0.10;;;;;;;;;;5054103;28;20459;-76
2023/12/24 05:03:44;;;;;;;0.00;0.00;;;;;;;;;;5043200;28;20033;-76
2023/12/24 05:06:10;;;;;;;0.38;0.10;;;;;;;;;;5052551;28;20025;-77
2023/12/24 05:08:36;;;;;;;0.22;0.10;;;;;;;;;;5053284;28;20025;-77
2023/12/24 05:11:09;;;;;;;0.00;0.00;;;;;;;;;;5052059;28;20399;-76
2023/12/24 05:13:35;;;;;;;0.00;0.00;;;;;;;;;;5054465;28;20025;-77
2023/12/24 05:16:02;;;;;;;0.10;0.10;;;;;;;;;;5053124;28;20472;-76
2023/12/24 05:18:29;;;;;;;0.15;0.10;;;;;;;;;;5051191;28;20029;-76
2023/12/24 05:20:55;;;;;;;2.75;0.00;;;;;;;;;;5043247;28;20067;-76
2023/12/24 05:23:21;;;;;;;0.08;0.08;;;;;;;;;;5052987;28;20457;-76
2023/12/24 05:25:48;;;;;;;0.10;0.00;;;;;;;;;;5052398;28;20083;-76
2023/12/24 05:28:16;;;;;;;1.17;0.10;;;;;;;;;;5061893;28;20093;-75
2023/12/24 05:30:42;;;;;;;0.00;0.00;;;;;;;;;;5069888;28;20535;-76
2023/12/24 05:33:09;;;;;;;1.23;0.10;;;;;;;;;;5052788;28;20021;-76
2023/12/24 05:35:35;;;;;;;0.47;0.20;;;;;;;;;;5051824;28;20425;-76
2023/12/24 05:38:01;;;;;;;0.10;0.10;;;;;;;;;;5051991;28;20480;-76
2023/12/24 05:40:28;;;;;;;0.30;0.20;;;;;;;;;;5052319;28;20067;-76
2023/12/24 05:42:54;;;;;;;1.00;0.20;;;;;;;;;;5052550;28;20025;-76
2023/12/24 05:45:20;;;;;;;0.32;0.20;;;;;;;;;;5052891;28;20100;-76
2023/12/24 05:47:46;;;;;;;0.17;0.17;;;;;;;;;;5051811;28;20060;-77
2023/12/24 05:50:12;;;;;;;0.98;0.20;;;;;;;;;;5052576;28;20036;-76
2023/12/24 05:52:41;;;;;;;0.10;0.10;;;;;;;;;;5054633;28;20468;-75
2023/12/24 05:55:07;;;;;;;0.10;0.10;;;;;;;;;;5063891;28;20117;-76
2023/12/24 05:57:33;;;;;;;0.55;0.20;;;;;;;;;;5061238;28;20021;-76
2023/12/24 05:59:59;;;;;;;0.20;0.20;;;;;;;;;;5064666;28;20041;-76
2023/12/24 06:02:26;;;;;;;0.10;0.10;;;;;;;;;;5062434;28;20033;-77
2023/12/24 06:04:52;;;;;;;0.10;0.10;;;;;;;;;;5061039;28;20480;-77
2023/12/24 06:07:18;;;;;;;0.00;0.00;;;;;;;;;;5065624;28;20029;-77
2023/12/24 06:09:44;;;;;;;0.55;0.20;;;;;;;;;;5060787;28;20037;-76
2023/12/24 06:12:10;;;;;;;0.20;0.10;;;;;;;;;;5054127;28;20159;-77
2023/12/24 06:14:36;;;;;;;1.55;0.13;;;;;;;;;;5052822;28;20025;-77
2023/12/24 06:17:02;;;;;;;0.10;0.10;;;;;;;;;;5053747;28;20104;-75
2023/12/24 06:19:28;;;;;;;0.20;0.20;;;;;;;;;;5052769;28;20085;-76
2023/12/24 06:21:55;;;;;;;0.73;0.10;;;;;;;;;;5053726;28;20017;-77
2023/12/24 06:24:21;;;;;;;0.00;0.00;;;;;;;;;;5052927;28;20075;-77
2023/12/24 06:26:48;;;;;;;0.10;0.10;;;;;;;;;;5049784;28;20052;-76
2023/12/24 06:29:14;;;;;;;0.03;0.00;;;;;;;;;;5052203;28;20120;-76
2023/12/24 06:31:40;;;;;;;0.10;0.10;;;;;;;;;;5053838;28;20090;-77
2023/12/24 06:34:06;;;;;;;0.10;0.10;;;;;;;;;;5057380;28;20044;-78
2023/12/24 06:36:32;;;;;;;0.20;0.10;;;;;;;;;;5052015;28;20125;-76
2023/12/24 06:38:58;;;;;;;0.08;0.00;;;;;;;;;;5051552;28;20029;-76
2023/12/24 06:41:24;;;;;;;0.10;0.10;;;;;;;;;;5050532;28;20033;-77
2023/12/24 06:43:50;;;;;;;0.10;0.10;;;;;;;;;;5052096;28;20029;-76
2023/12/24 06:46:16;;;;;;;0.30;0.28;;;;;;;;;;5051735;28;20040;-77
2023/12/24 06:48:43;;;;;;;0.30;0.20;;;;;;;;;;5054767;28;20507;-77
2023/12/24 06:51:09;;;;;;;0.40;0.38;;;;;;;;;;5055910;28;20278;-77
2023/12/24 06:53:35;;;;;;;0.73;0.32;;;;;;;;;;5055676;28;20028;-77
2023/12/24 06:56:01;;;;;;;0.10;0.10;;;;;;;;;;5060305;28;20021;-76
2023/12/24 06:58:27;;;;;;;0.40;0.20;;;;;;;;;;5053561;28;20506;-77
2023/12/24 07:00:53;;;;;;;0.10;0.10;;;;;;;;;;5056032;28;20471;-76
2023/12/24 07:03:19;;;;;;;0.10;0.10;;;;;;;;;;5056851;28;20033;-76
2023/12/24 07:05:45;;;;;;;0.60;0.05;;;;;;;;;;5055843;28;20028;-77
2023/12/24 07:08:12;;;;;;;0.10;0.10;;;;;;;;;;5055754;28;20025;-76
2023/12/24 07:10:38;;;;;;;0.05;0.05;;;;;;;;;;5054333;28;20029;-76
2023/12/24 07:13:04;;;;;;;0.10;0.10;;;;;;;;;;5057984;28;20032;-76
2023/12/24 07:15:32;;;;;;;0.22;0.10;;;;;;;;;;5052428;28;20534;-76
2023/12/24 07:17:58;;;;;;;0.25;0.10;;;;;;;;;;5052002;28;20025;-76
2023/12/24 07:20:24;;;;;;;0.20;0.20;;;;;;;;;;5055936;28;20387;-77
2023/12/24 07:22:50;;;;;;;0.10;0.10;;;;;;;;;;5055949;28;20079;-76
2023/12/24 07:25:16;;;;;;;0.10;0.10;;;;;;;;;;5055413;28;20029;-76
2023/12/24 07:27:45;;;;;;;0.40;0.10;;;;;;;;;;5057498;28;20033;-76
2023/12/24 07:30:12;;;;;;;0.20;0.17;;;;;;;;;;5073940;28;20036;-76
2023/12/24 07:32:43;;;;;;;0.10;0.10;;;;;;;;;;5057290;28;20040;-76
2023/12/24 07:35:09;;;;;;;0.45;0.10;;;;;;;;;;5054866;28;20472;-77
2023/12/24 07:37:36;;;;;;;0.30;0.13;;;;;;;;;;5054395;28;20021;-76
2023/12/24 07:40:03;;;;;;;0.30;0.28;;;;;;;;;;5055229;28;20075;-76
2023/12/24 07:42:29;;;;;;;0.93;0.20;;;;;;;;;;5054935;28;20025;-77
2023/12/24 07:44:55;;;;;;;0.10;0.10;;;;;;;;;;5056540;28;20021;-77
2023/12/24 07:47:21;;;;;;;1.23;0.08;;;;;;;;;;5056038;28;20491;-77
2023/12/24 07:49:47;;;;;;;0.10;0.10;;;;;;;;;;5056708;28;20468;-77
2023/12/24 07:52:14;;;;;;;0.30;0.30;;;;;;;;;;5057463;28;20112;-77
2023/12/24 07:54:40;;;;;;;0.20;0.20;;;;;;;;;;5057385;28;20090;-77
2023/12/24 07:57:06;;;;;;;0.10;0.10;;;;;;;;;;5056200;28;20025;-77
2023/12/24 07:59:32;;;;;;;0.10;0.10;;;;;;;;;;5060820;28;20041;-76
2023/12/24 08:01:58;;;;;;;0.10;0.10;;;;;;;;;;5054392;28;20080;-75
2023/12/24 08:04:24;;;;;;;0.17;0.17;;;;;;;;;;5058031;28;20029;-76
2023/12/24 08:06:51;;;;;;;0.20;0.20;;;;;;;;;;5055024;28;20025;-77
2023/12/24 08:09:17;;;;;;;0.20;0.10;;;;;;;;;;5054271;28;20090;-76
2023/12/24 08:11:43;;;;;;;0.25;0.10;;;;;;;;;;5054606;28;20033;-76
2023/12/24 08:14:09;;;;;;;0.00;0.00;;;;;;;;;;5053791;28;20441;-76
2023/12/24 08:16:35;;;;;;;0.63;0.20;;;;;;;;;;5053373;28;20017;-77
2023/12/24 08:19:02;;;;;;;0.17;0.17;;;;;;;;;;5053664;28;20502;-76
2023/12/24 08:21:28;;;;;;;0.30;0.20;;;;;;;;;;5053425;28;20039;-77
2023/12/24 08:23:55;;;;;;;0.40;0.10;;;;;;;;;;5053741;28;20037;-77
2023/12/24 08:26:21;;;;;;;0.10;0.10;;;;;;;;;;5052889;28;20032;-76
2023/12/24 08:28:47;;;;;;;0.20;0.20;;;;;;;;;;5053370;28;20057;-77
2023/12/24 08:31:14;;;;;;;0.20;0.20;;;;;;;;;;5052126;28;20029;-77
2023/12/24 08:33:40;;;;;;;0.10;0.10;;;;;;;;;;5054123;28;20021;-77
2023/12/24 08:36:06;;;;;;;0.55;0.22;;;;;;;;;;5053701;28;20361;-77
2023/12/24 08:38:33;;;;;;;0.25;0.20;;;;;;;;;;5060874;28;20025;-77
2023/12/24 08:40:59;;;;;;;0.10;0.10;;;;;;;;;;5052606;28;20012;-76
2023/12/24 08:43:25;;;;;;;0.38;0.25;;;;;;;;;;5052032;28;20028;-76
2023/12/24 08:45:51;;;;;;;0.15;0.15;;;;;;;;;;5053086;28;20021;-76
2023/12/24 08:48:18;;;;;;;0.20;0.20;;;;;;;;;;5053382;28;20493;-76
2023/12/24 08:50:45;;;;;;;0.10;0.10;;;;;;;;;;5054436;28;20028;-78
2023/12/24 08:53:11;;;;;;;0.50;0.20;;;;;;;;;;5053418;28;20055;-77
2023/12/24 08:55:37;;;;;;;0.35;0.30;;;;;;;;;;5053715;28;20024;-76
2023/12/24 08:58:04;;;;;;;1.10;0.17;;;;;;;;;;5052660;28;20021;-76
2023/12/24 09:00:30;;;;;;;0.30;0.30;;;;;;;;;;5052703;28;20040;-76
2023/12/24 09:02:56;;;;;;;0.10;0.10;;;;;;;;;;5052754;28;20033;-76
2023/12/24 09:05:22;;;;;;;0.20;0.20;;;;;;;;;;5059872;28;20120;-76
2023/12/24 09:07:48;;;;;;;0.10;0.10;;;;;;;;;;5052320;28;20024;-76
2023/12/24 09:10:14;;;;;;;0.73;0.20;;;;;;;;;;5053075;28;20142;-77
2023/12/24 09:12:41;;;;;;;0.60;0.40;;;;;;;;;;5053071;28;20419;-76
2023/12/24 09:15:07;;;;;;;0.43;0.05;;;;;;;;;;5056137;28;20337;-77
2023/12/24 09:17:33;;;;;;;0.20;0.20;;;;;;;;;;5048014;28;20553;-75
2023/12/24 09:19:59;;;;;;;1.25;0.43;;;;;;;;;;5052921;28;20032;-77
2023/12/24 09:22:25;;;;;;;0.22;0.20;;;;;;;;;;5064221;28;20028;-77
2023/12/24 09:24:51;;;;;;;0.40;0.13;;;;;;;;;;5059434;28;20163;-76
2023/12/24 09:27:17;;;;;;;0.17;0.17;;;;;;;;;;5056599;28;20037;-77
2023/12/24 09:29:43;;;;;;;0.20;0.20;;;;;;;;;;5075427;28;20089;-75
2023/12/24 09:32:10;;;;;;;1.13;0.20;;;;;;;;;;5063690;28;20026;-77
2023/12/24 09:34:36;;;;;;;0.28;0.25;;;;;;;;;;5054532;28;20484;-77
2023/12/24 09:37:05;;;;;;;0.77;0.30;;;;;;;;;;5055066;28;20028;-76
2023/12/24 09:39:31;;;;;;;0.30;0.30;;;;;;;;;;5055055;28;20017;-76
2023/12/24 09:41:58;;;;;;;0.20;0.20;;;;;;;;;;5053828;28;20048;-77
2023/12/24 09:44:26;;;;;;;1.05;0.38;;;;;;;;;;5053355;28;20472;-77
2023/12/24 09:46:52;;;;;;;0.38;0.20;;;;;;;;;;5051426;28;20412;-77
2023/12/24 09:49:18;;;;;;;0.50;0.20;;;;;;;;;;5052163;28;20025;-77
2023/12/24 09:51:44;;;;;;;2.08;0.40;;;;;;;;;;5051763;28;20090;-76
2023/12/24 09:54:10;;;;;;;0.20;0.20;;;;;;;;;;5056003;28;20040;-76
2023/12/24 09:56:37;;;;;;;0.57;0.25;;;;;;;;;;5048264;28;20021;-77
2023/12/24 09:59:03;;;;;;;0.30;0.30;;;;;;;;;;5052159;28;20029;-77
2023/12/24 10:01:38;;;;;;;0.30;0.30;;;;;;;;;;5052151;28;20099;-77
2023/12/24 10:04:04;;;;;;;0.47;0.20;;;;;;;;;;5043997;28;20085;-77
2023/12/24 10:06:31;;;;;;;0.82;0.60;;;;;;;;;;5052300;28;20040;-77
2023/12/24 10:08:57;;;;;;;0.40;0.20;;;;;;;;;;5053853;28;20032;-77
2023/12/24 10:11:23;;;;;;;0.82;0.40;;;;;;;;;;5055380;28;20087;-76
2023/12/24 10:13:59;;;;;;;0.32;0.15;;;;;;;;;;5057830;28;20474;-76
2023/12/24 10:16:26;;;;;;;0.30;0.30;;;;;;;;;;5058046;28;20025;-77
2023/12/24 10:18:56;;;;;;;0.30;0.30;;;;;;;;;;5064124;28;20128;-76
2023/12/24 10:21:22;;;;;;;0.38;0.35;;;;;;;;;;5056224;28;20036;-76
2023/12/24 10:23:49;;;;;;;0.75;0.32;;;;;;;;;;5059411;28;20041;-75
2023/12/24 10:26:15;;;;;;;2.15;0.30;;;;;;;;;;5057278;28;20681;-76
2023/12/24 10:28:49;;;;;;;1.40;0.50;;;;;;;;;;5057563;28;20021;-77
2023/12/24 10:31:15;;;;;;;0.40;0.40;;;;;;;;;;5063927;28;20021;-78
2023/12/24 10:33:42;;;;;;;0.40;0.30;;;;;;;;;;5055676;28;20033;-77
2023/12/24 10:36:08;;;;;;;0.47;0.30;;;;;;;;;;5057253;28;20013;-76
2023/12/24 10:38:35;;;;;;;0.32;0.20;;;;;;;;;;5056234;28;20017;-76
2023/12/24 10:41:01;;;;;;;1.25;0.40;;;;;;;;;;5056505;28;20016;-76
2023/12/24 10:43:27;;;;;;;0.70;0.22;;;;;;;;;;5058096;28;20365;-76
2023/12/24 10:45:53;;;;;;;0.20;0.20;;;;;;;;;;5056569;28;20025;-77
2023/12/24 10:48:20;;;;;;;0.22;0.20;;;;;;;;;;5046829;28;20024;-76
2023/12/24 10:50:46;;;;;;;2.10;0.60;;;;;;;;;;5053892;28;20039;-77
2023/12/24 10:53:15;;;;;;;0.30;0.30;;;;;;;;;;5055268;28;20029;-75
2023/12/24 10:55:45;;;;;;;0.80;0.40;;;;;;;;;;5055906;28;20357;-76
2023/12/24 10:58:32;;;;;;;0.40;0.25;;;;;;;;;;5054321;28;20578;-77
2023/12/24 11:01:08;;;;;;;2.45;0.70;;;;;;;;;;5070672;28;20036;-76
2023/12/24 11:03:42;;;;;;;1.20;0.65;;;;;;;;;;5055368;28;20017;-77
2023/12/24 11:06:09;;;;;;;1.60;0.43;;;;;;;;;;5047276;28;20407;-76
2023/12/24 11:08:35;;;;;;;1.02;0.60;;;;;;;;;;5054796;28;20013;-77
2023/12/24 11:11:08;;;;;;;1.40;0.70;;;;;;;;;;5054625;28;20025;-76
2023/12/24 11:13:36;;;;;;;1.17;0.60;;;;;;;;;;5055050;28;20036;-77
2023/12/24 11:16:04;;;;;;;0.35;0.35;;;;;;;;;;5055435;28;20067;-77
2023/12/24 11:18:43;;;;;;;0.40;0.40;;;;;;;;;;5049675;28;20044;-77
2023/12/24 11:21:18;;;;;;;0.47;0.35;;;;;;;;;;5048084;28;20013;-77
2023/12/24 11:24:04;;;;;;;0.80;0.45;;;;;;;;;;5054943;28;20067;-77
2023/12/24 11:26:31;;;;;;;1.05;0.70;;;;;;;;;;5054802;28;20032;-77
2023/12/24 11:28:57;;;;;;;1.40;0.40;;;;;;;;;;5064501;28;20036;-77
2023/12/24 11:31:24;;;;;;;0.50;0.40;;;;;;;;;;5073282;28;20021;-78
2023/12/24 11:33:54;;;;;;;0.35;0.30;;;;;;;;;;5061727;28;20044;-77
2023/12/24 11:36:20;;;;;;;0.30;0.30;;;;;;;;;;5054455;28;20098;-77
2023/12/24 11:38:47;;;;;;;0.57;0.40;;;;;;;;;;5054770;28;20021;-77
2023/12/24 11:41:20;;;;;;;0.38;0.35;;;;;;;;;;5054469;28;20029;-76
2023/12/24 11:43:56;;;;;;;0.90;0.43;;;;;;;;;;5053618;28;20022;-76
2023/12/24 11:46:23;;;;;;;0.50;0.50;;;;;;;;;;5054613;28;20253;-76
2023/12/24 11:48:49;;;;;;;0.35;0.35;;;;;;;;;;5055592;28;20025;-76
2023/12/24 11:51:16;;;;;;;0.50;0.50;;;;;;;;;;5055600;28;20021;-76
2023/12/24 11:53:43;;;;;;;0.63;0.32;;;;;;;;;;5055246;28;20021;-75
2023/12/24 11:56:13;;;;;;;1.00;0.32;;;;;;;;;;5055010;28;20013;-76
2023/12/24 11:58:41;;;;;;;0.82;0.60;;;;;;;;;;5057188;28;20039;-76
2023/12/24 12:01:08;;;;;;;1.00;0.32;;;;;;;;;;5048570;28;20100;-76
2023/12/24 12:03:35;;;;;;;0.90;0.40;;;;;;;;;;5072786;28;20048;-77
2023/12/24 12:06:01;;;;;;;1.00;0.45;;;;;;;;;;5056528;28;20035;-79
2023/12/24 12:08:28;;;;;;;2.15;0.50;;;;;;;;;;5055524;28;20104;-75
2023/12/24 12:10:55;;;;;;;0.82;0.50;;;;;;;;;;5056762;28;20085;-76
2023/12/24 12:13:21;;;;;;;0.47;0.47;;;;;;;;;;5055646;28;20021;-76
2023/12/24 12:15:47;;;;;;;0.95;0.45;;;;;;;;;;5054194;28;20009;-77
2023/12/24 12:18:14;;;;;;;0.55;0.55;;;;;;;;;;5047917;28;20129;-77
2023/12/24 12:20:41;;;;;;;0.80;0.50;;;;;;;;;;5052099;28;20040;-78
2023/12/24 12:23:08;;;;;;;0.65;0.50;;;;;;;;;;5057203;28;20105;-77
2023/12/24 12:25:34;;;;;;;0.50;0.50;;;;;;;;;;5049116;28;20025;-77
2023/12/24 12:28:00;;;;;;;1.10;1.00;;;;;;;;;;5053281;28;20025;-77
2023/12/24 12:30:26;;;;;;;0.80;0.65;;;;;;;;;;5053674;28;20021;-78
2023/12/24 12:32:52;;;;;;;1.70;0.40;;;;;;;;;;5045476;28;20017;-77
2023/12/24 12:35:18;;;;;;;0.63;0.40;;;;;;;;;;5053746;28;20017;-77
2023/12/24 12:37:45;;;;;;;1.20;0.40;;;;;;;;;;5054145;28;20016;-77
2023/12/24 12:40:12;;;;;;;1.30;0.30;;;;;;;;;;5053003;28;20017;-77
2023/12/24 12:42:38;;;;;;;0.55;0.30;;;;;;;;;;5053604;28;20024;-75
2023/12/24 12:45:04;;;;;;;0.70;0.38;;;;;;;;;;5053093;28;20021;-77
2023/12/24 12:47:30;;;;;;;1.90;0.40;;;;;;;;;;5065238;28;20025;-77
2023/12/24 12:49:58;;;;;;;0.55;0.20;;;;;;;;;;5052743;28;20496;-77
2023/12/24 12:52:24;;;;;;;0.52;0.50;;;;;;;;;;5053190;28;20533;-77
2023/12/24 12:54:50;;;;;;;0.63;0.52;;;;;;;;;;5052824;28;20025;-78
2023/12/24 12:57:33;;;;;;;2.65;0.40;;;;;;;;;;5051634;28;20017;-77
2023/12/24 13:00:09;;;;;;;0.40;0.40;;;;;;;;;;5052673;28;20387;-78
2023/12/24 13:02:35;;;;;;;1.75;0.45;;;;;;;;;;5053213;28;20052;-76
2023/12/24 13:05:01;;;;;;;1.15;0.40;;;;;;;;;;5053274;28;20551;-75
2023/12/24 13:07:34;;;;;;;0.43;0.40;;;;;;;;;;5069040;28;20021;-76
2023/12/24 13:10:00;;;;;;;0.88;0.50;;;;;;;;;;5053234;28;20029;-76
2023/12/24 13:12:30;;;;;;;0.30;0.20;;;;;;;;;;5053919;28;20021;-78
2023/12/24 13:14:57;;;;;;;0.55;0.55;;;;;;;;;;5054067;28;20037;-77
2023/12/24 13:17:24;;;;;;;0.30;0.30;;;;;;;;;;5053964;28;20036;-77
2023/12/24 13:19:51;;;;;;;0.75;0.50;;;;;;;;;;5052457;28;20025;-77
2023/12/24 13:22:18;;;;;;;0.50;0.20;;;;;;;;;;5054760;28;20424;-77
2023/12/24 13:24:44;;;;;;;0.30;0.20;;;;;;;;;;5037337;28;20446;-77
2023/12/24 13:27:10;;;;;;;1.95;0.40;;;;;;;;;;5052840;28;20043;-78
2023/12/24 13:29:36;;;;;;;0.88;0.43;;;;;;;;;;5064407;28;20001;-77
2023/12/24 13:32:03;;;;;;;1.17;0.50;;;;;;;;;;5069903;28;20508;-76
2023/12/24 13:34:29;;;;;;;0.40;0.40;;;;;;;;;;5053235;28;20071;-77
2023/12/24 13:36:56;;;;;;;0.40;0.40;;;;;;;;;;5052264;28;20069;-76
2023/12/24 13:39:22;;;;;;;0.30;0.30;;;;;;;;;;5053106;28;21680;-77
2023/12/24 13:41:48;;;;;;;0.30;0.30;;;;;;;;;;5052886;28;20107;-77
2023/12/24 13:44:14;;;;;;;0.88;0.30;;;;;;;;;;5053146;28;20021;-76
2023/12/24 13:46:40;;;;;;;0.40;0.22;;;;;;;;;;5057287;28;20092;-77
2023/12/24 13:49:09;;;;;;;1.75;0.40;;;;;;;;;;5041167;28;20025;-77
2023/12/24 13:51:39;;;;;;;0.93;0.50;;;;;;;;;;5048687;28;20039;-77
2023/12/24 13:54:05;;;;;;;0.40;0.30;;;;;;;;;;5052978;28;20024;-77
2023/12/24 13:56:34;;;;;;;0.30;0.30;;;;;;;;;;5051696;28;20017;-77
2023/12/24 13:59:00;;;;;;;0.35;0.30;;;;;;;;;;5052058;28;20045;-76
2023/12/24 14:01:27;;;;;;;0.50;0.40;;;;;;;;;;5052572;28;20092;-77
2023/12/24 14:03:53;;;;;;;0.90;0.40;;;;;;;;;;5052578;28;20408;-76
2023/12/24 14:06:19;;;;;;;1.25;0.50;;;;;;;;;;5052145;28;20017;-77
2023/12/24 14:08:45;;;;;;;0.73;0.38;;;;;;;;;;5054432;28;20464;-77
2023/12/24 14:11:11;;;;;;;0.40;0.40;;;;;;;;;;5053485;28;20025;-76
2023/12/24 14:13:38;;;;;;;1.60;0.47;;;;;;;;;;5053218;28;20525;-77
2023/12/24 14:16:04;;;;;;;0.47;0.47;;;;;;;;;;5053123;28;20040;-77
2023/12/24 14:18:30;;;;;;;1.10;0.60;;;;;;;;;;5044022;28;20025;-78
2023/12/24 14:20:56;;;;;;;0.50;0.40;;;;;;;;;;5052657;28;20119;-77
2023/12/24 14:23:22;;;;;;;0.70;0.50;;;;;;;;;;5052414;28;20029;-77
2023/12/24 14:25:48;;;;;;;0.30;0.25;;;;;;;;;;5052010;28;20018;-78
2023/12/24 14:28:14;;;;;;;0.98;0.20;;;;;;;;;;5051440;28;20159;-78
2023/12/24 14:30:40;;;;;;;1.80;0.40;;;;;;;;;;5051876;28;20472;-76
2023/12/24 14:33:07;;;;;;;0.15;0.10;;;;;;;;;;5052144;28;20025;-77
2023/12/24 14:35:33;;;;;;;1.35;0.70;;;;;;;;;;5052152;28;20053;-76
2023/12/24 14:37:59;;;;;;;1.08;0.68;;;;;;;;;;5052268;28;20047;-77
2023/12/24 14:40:25;;;;;;;1.15;0.68;;;;;;;;;;5059623;28;20013;-77